Share

Kayenta, AZ

Window Rock (KRQE) Elev 6742 ft | 35.66 °N, 109.06 °W | Change Station

Current weather conditions updated 25 minutes ago

Scattered Clouds
Scattered Clouds
43 °F
Feels Like 43 °F
N
0
Wind Variable Wind from North
Sunrise 6:40 AM
Sunset 7:59 PM
Moon Waning Gibbous

Today is forecast to be nearly the same temperature as yesterday.

Pressure 30.01 in
Visibility 10.0 miles
Clouds Scattered Clouds 9500 ft
Dew Point 37 °F
Humidity 80%
Rainfall 0.19 in
Snow Depth Not available.
UV 0 out of 16
Pollen 7.60 out of 12
Air Quality Not available.
Flu Activity Local Activity
METAR KRQE 200653Z AUTO 00000KT 10SM SCT095 06/03 A3019 RMK AO2 SLP163 T00610028 401781006 TSNO

More Conditions Fewer Conditions

Pressure 30.01 in
Visibility 10.0 miles
Clouds Scattered Clouds 9500 ft
Dew Point 37 °F
Humidity 80%
Rainfall 0.19 in
Snow Depth Not available.
UV 0 out of 16
Pollen 7.60 out of 12
Air Quality Not available.
Flu Activity Local Activity
METAR KRQE 200653Z AUTO 00000KT 10SM SCT095 06/03 A3019 RMK AO2 SLP163 T00610028 401781006 TSNO

More Conditions Fewer Conditions

10-Day Weather Forecast

Almanac

Astronomy

Apr. 20, 2014 Rise Set
Actual Time 6:40 AM MDT 7:59 PM MDT
Civil Twilight 6:13 AM MDT 8:26 PM MDT
Nautical Twilight 5:41 AM MDT 8:59 PM MDT
Astronomical Twilight 5:07 AM MDT 9:33 PM MDT
Moon 12:39 AM MDT 11:07 AM MDT
Length of Visible Light 14h 13m
Length of Day
13h 19m
Tomorrow will be 2m 10s longer.
Waning Gibbous, 72% of the Moon is Illuminated
Today
Waning Gibbous
Apr 22
Last Quarter
Apr 29
New
May 6
First Quarter
May 14
Full

Community

  • Sunny day at the coast-Cape Arago Lighthouse
    Sunny day at the coast-Cape Arago Lighthouse
  • Cherry Blossoms
    Cherry Blossoms
  • White-Crowned Sparrow
    White-Crowned Sparrow
  • New Day
    New Day
  • Happy Easter!
    Happy Easter!

WunderPhotos

Upload Photos

1,703,084 photos uploaded!

WunderBlogs® & News

Nearby

Snow Depth

Station Depth Elevation
Snowslide Canyon 6 in 9730 ft
Mormon Mountain 0 in 7500 ft
Happy Jack 1 in 7630 ft
White Horse Lake 0 in 7180 ft
Promontory 1 in 7930 ft

Coastal Water Temperatures

Place Temperature
No Stations Reporting

Earthquake Activity

City Distance Mag. Time & Date
No recent earthquake activity has been reported nearby.
Minimum magnitude displayed is 2.5.

Nearby Weather Stations

Station Location Temp. Windchill Dew Point Humidity Wind Precip. Elev Updated Type
HADS KAYENTA 16 WSW AZ, Shonto, AZ 43 °F 43 °F - - North  at  - 0.00 in / hr 7274 ft 11:25 PM MST MADIS

Show More Stations Show Fewer Stations

What do you think?

We're not finished. Please let us know what you like, what you don't like, and what you are still missing.